Погода Джадуна 2 недели

Бенгази, Ливия

04 - 17 марта
  • 04марта
    Сегодня
    +7°
    +15°
    Ясно и безоблачно
    ВремяПогодаТемператураВлажностьДавлениеВетер, м/сВероятность осадков
    02:00Ясно и безоблачно+15°C23 %704 мм5.6 м/с2 %
    05:00Ясно и безоблачно+14°C23 %703 мм7.1 м/с2 %
    08:00Ясно и безоблачно+11°C29 %705 мм5.2 м/с2 %
    11:00Ясно и безоблачно+11°C58 %706 мм5.0 м/с2 %
    14:00Ясно и безоблачно+14°C44 %706 мм5.9 м/с2 %
    17:00Ясно и безоблачно+14°C30 %706 мм5.8 м/с2 %
    20:00Ясно и безоблачно+12°C41 %706 мм2.7 м/с2 %
    23:00Ясно и безоблачно+10°C54 %707 мм1.1 м/с2 %
  • 05марта
    Вторник
    +8°
    +15°
    Ясно и безоблачно
    ВремяПогодаТемператураВлажностьДавлениеВетер, м/сВероятность осадков
    02:00Ясно и безоблачно+10°C40 %708 мм3.9 м/с2 %
    05:00Ясно и безоблачно+8°C44 %708 мм3.3 м/с2 %
    08:00Ясно и безоблачно+7°C45 %708 мм3.0 м/с2 %
    11:00Ясно и безоблачно+10°C36 %710 мм2.4 м/с2 %
    14:00Ясно и безоблачно+14°C28 %710 мм3.8 м/с2 %
    17:00Ясно и безоблачно+15°C28 %709 мм4.0 м/с2 %
    20:00Ясно и безоблачно+12°C40 %710 мм2.5 м/с2 %
    23:00Ясно и безоблачно+10°C57 %710 мм2.4 м/с2 %
  • 06марта
    Среда
    +8°
    +17°
    Облачно с прояснениями
    ВремяПогодаТемператураВлажностьДавлениеВетер, м/сВероятность осадков
    02:00Ясно и безоблачно+10°C62 %710 мм2.6 м/с2 %
    05:00Ясно и безоблачно+9°C61 %710 мм2.3 м/с2 %
    08:00Ясно и безоблачно+9°C60 %710 мм2.5 м/с2 %
    11:00Облачно с прояснениями+13°C39 %712 мм1.7 м/с2 %
    14:00Облачно с прояснениями+16°C35 %711 мм1.8 м/с2 %
    17:00Облачно с прояснениями+17°C31 %710 мм3.7 м/с2 %
    20:00Облачно с прояснениями+14°C53 %710 мм5.4 м/с2 %
    23:00Облачно с прояснениями+11°C72 %710 мм3.3 м/с2 %
  • 07марта
    Четверг
    +9°
    +19°
    Ясно и безоблачно
    ВремяПогодаТемператураВлажностьДавлениеВетер, м/сВероятность осадков
    02:00Облачно с прояснениями+11°C68 %710 мм3.9 м/с2 %
    05:00Облачно с прояснениями+9°C79 %708 мм4.0 м/с2 %
    08:00Ясно и безоблачно+8°C87 %709 мм3.7 м/с2 %
    11:00Ясно и безоблачно+12°C53 %710 мм4.5 м/с2 %
    14:00Ясно и безоблачно+17°C31 %709 мм3.6 м/с2 %
    17:00Ясно и безоблачно+19°C22 %708 мм2.6 м/с2 %
    20:00Ясно и безоблачно+16°C30 %708 мм1.9 м/с2 %
    23:00Облачно с прояснениями+13°C40 %708 мм3.4 м/с2 %
  • 08марта
    Пятница
    +11°
    +21°
    Облачно с прояснениями
    ВремяПогодаТемператураВлажностьДавлениеВетер, м/сВероятность осадков
    02:00Облачно с прояснениями+13°C43 %707 мм4.6 м/с2 %
    05:00Облачно с прояснениями+11°C49 %706 мм4.6 м/с2 %
    08:00Облачно с прояснениями+10°C55 %706 мм4.5 м/с2 %
    11:00Облачно с прояснениями+15°C35 %707 мм6.4 м/с2 %
    14:00Облачно с прояснениями+20°C19 %707 мм5.3 м/с2 %
    17:00Облачно с прояснениями+21°C17 %705 мм3.5 м/с2 %
    20:00Ясно и безоблачно+18°C22 %705 мм3.2 м/с2 %
    23:00Ясно и безоблачно+16°C30 %705 мм6.4 м/с2 %
Мы используем cookies
Соглашаюсь